Cary, North Carolina
Current Conditions -  °F | °C
As of 7:51 PM on Saturday 22 Nov 2014 (Local Time) from KRDU Reporting Station
Scattered Clouds Scattered Clouds  
Wind Chill: 39°   Ceiling: Unl
Heat Index: 39°   Visibility: 10mi
Dew Point: 19°   Wind: 0mph
Humidity: 45%   Direction: NA
Pressure: 30.36"   Gusts: NA
Location:  35.79°N, 78.78°W
Report Text: KRDU 230051Z 00000KT 10SM SCT250 04/M07 A3036 RMK AO2 SLP284 T00391072 $
Loading
Personal Weather Stations






























Interactive Weather Map New forecast layout! Learn more

10-Day Weather Forecast

Advertisements
Track Severe Weather on mobile